Time;durP1;ratioP1;P1;durP2;ratioP2;P2;SDS_P1;SDS_P2;PMS_P1;PMS_P2;Temp;Humidity;BMP_temperature;BMP_pressure;BME280_temperature;BME280_humidity;BME280_pressure;Samples;Min_cycle;Max_cycle;Signal;HPM_P1;HPM_P2
2023/11/11 00:00:36;;;;;;;1.05;0.95;;;7.80;99.90;;;;;;5011829;28;20091;-72
2023/11/11 00:03:04;;;;;;;0.15;0.13;;;7.90;99.90;;;;;;4993314;28;20037;-72
2023/11/11 00:05:31;;;;;;;0.30;0.30;;;7.90;99.90;;;;;;5019660;28;20030;-73
2023/11/11 00:07:57;;;;;;;0.30;0.30;;;7.90;99.90;;;;;;4997074;28;20086;-74
2023/11/11 00:10:23;;;;;;;7.47;1.17;;;7.90;99.90;;;;;;5005043;28;20445;-72
2023/11/11 00:12:49;;;;;;;0.10;0.10;;;7.90;99.90;;;;;;4996232;28;20361;-73
2023/11/11 00:15:15;;;;;;;0.88;0.65;;;7.90;99.90;;;;;;5003200;28;20086;-72
2023/11/11 00:17:41;;;;;;;0.17;0.15;;;8.00;99.90;;;;;;5004119;28;20037;-71
2023/11/11 00:20:12;;;;;;;0.43;0.30;;;8.00;99.90;;;;;;4991750;28;20026;-71
2023/11/11 00:22:45;;;;;;;0.10;0.10;;;8.00;99.90;;;;;;4985837;28;20030;-71
2023/11/11 00:25:17;;;;;;;0.52;0.20;;;8.00;99.90;;;;;;4974337;28;20519;-71
2023/11/11 00:27:44;;;;;;;0.10;0.10;;;8.00;99.90;;;;;;4991149;28;20548;-72
2023/11/11 00:30:13;;;;;;;1.25;0.60;;;8.00;99.90;;;;;;4981643;28;20456;-71
2023/11/11 00:32:39;;;;;;;0.25;0.25;;;8.00;99.90;;;;;;4997930;28;20125;-70
2023/11/11 00:35:07;;;;;;;0.30;0.30;;;8.00;99.90;;;;;;4987906;28;20117;-71
2023/11/11 00:37:34;;;;;;;0.22;0.20;;;8.10;99.90;;;;;;4991064;28;20029;-71
2023/11/11 00:40:01;;;;;;;1.13;0.40;;;8.10;99.90;;;;;;4981910;28;20034;-72
2023/11/11 00:42:26;;;;;;;0.88;0.80;;;8.10;99.90;;;;;;5003253;28;20031;-71
2023/11/11 00:44:52;;;;;;;0.35;0.20;;;8.10;99.90;;;;;;4985839;28;20045;-72
2023/11/11 00:47:18;;;;;;;0.35;0.35;;;8.10;99.90;;;;;;4981980;28;20045;-71
2023/11/11 00:49:49;;;;;;;0.10;0.10;;;8.10;99.90;;;;;;4981783;28;20065;-72
2023/11/11 00:52:15;;;;;;;0.10;0.10;;;8.20;99.90;;;;;;4973805;28;20031;-72
2023/11/11 00:54:41;;;;;;;4.07;0.70;;;8.20;99.90;;;;;;4993599;28;20118;-71
2023/11/11 00:57:07;;;;;;;0.00;0.00;;;8.20;99.90;;;;;;5003651;28;20034;-72
2023/11/11 00:59:33;;;;;;;0.10;0.10;;;8.20;99.90;;;;;;4998548;28;20031;-71
2023/11/11 01:01:59;;;;;;;0.10;0.10;;;8.20;99.90;;;;;;4994091;28;20034;-71
2023/11/11 01:04:26;;;;;;;0.30;0.30;;;8.20;99.90;;;;;;4993500;28;20392;-72
2023/11/11 01:06:52;;;;;;;0.52;0.40;;;8.20;99.90;;;;;;4985741;28;20034;-71
2023/11/11 01:09:19;;;;;;;2.72;1.52;;;8.20;99.90;;;;;;4992291;28;20388;-72
2023/11/11 01:11:46;;;;;;;0.10;0.10;;;8.20;99.90;;;;;;4977628;28;20487;-71
2023/11/11 01:14:12;;;;;;;0.43;0.43;;;8.20;99.90;;;;;;4984877;28;20034;-71
2023/11/11 01:16:38;;;;;;;0.98;0.55;;;8.10;99.90;;;;;;4977163;28;20049;-71
2023/11/11 01:19:04;;;;;;;0.20;0.20;;;8.00;99.90;;;;;;4991155;28;20045;-72
2023/11/11 01:21:30;;;;;;;0.13;0.13;;;8.00;99.90;;;;;;5009843;28;20026;-72
2023/11/11 01:23:57;;;;;;;0.43;0.43;;;7.90;99.90;;;;;;5001422;28;20037;-72
2023/11/11 01:26:25;;;;;;;0.13;0.13;;;7.90;99.90;;;;;;4996542;28;20472;-74
2023/11/11 01:28:51;;;;;;;0.22;0.22;;;7.80;99.90;;;;;;4996437;28;20530;-73
2023/11/11 01:31:18;;;;;;;0.10;0.10;;;7.80;99.90;;;;;;4986360;28;20030;-73
2023/11/11 01:33:44;;;;;;;0.10;0.10;;;7.70;99.90;;;;;;5005768;28;20070;-73
2023/11/11 01:36:10;;;;;;;0.10;0.10;;;7.60;99.90;;;;;;5004913;28;20058;-72
2023/11/11 01:38:35;;;;;;;0.28;0.28;;;7.60;99.90;;;;;;5001186;28;20026;-72
2023/11/11 01:41:05;;;;;;;0.10;0.10;;;7.50;99.90;;;;;;5006376;28;20038;-72
2023/11/11 01:43:31;;;;;;;0.08;0.08;;;7.50;99.90;;;;;;5011583;28;20048;-71
2023/11/11 01:46:05;;;;;;;0.20;0.20;;;7.40;99.90;;;;;;4996473;28;20030;-73
2023/11/11 01:48:35;;;;;;;0.00;0.00;;;7.40;99.90;;;;;;4992429;28;20026;-73
2023/11/11 01:51:02;;;;;;;0.00;0.00;;;7.30;99.90;;;;;;4986068;28;20470;-73
2023/11/11 01:53:29;;;;;;;0.75;0.30;;;7.20;99.90;;;;;;5008582;28;20062;-73
2023/11/11 01:55:56;;;;;;;0.10;0.10;;;7.20;99.90;;;;;;5011843;28;20032;-74
2023/11/11 01:58:22;;;;;;;0.00;0.00;;;7.00;99.90;;;;;;4988404;28;20088;-73
2023/11/11 02:00:48;;;;;;;0.25;0.25;;;6.90;99.90;;;;;;4996642;28;20113;-71
2023/11/11 02:03:14;;;;;;;0.00;0.00;;;6.80;99.90;;;;;;4995176;28;20080;-72
2023/11/11 02:05:40;;;;;;;0.10;0.10;;;6.70;99.90;;;;;;4989055;28;20033;-73
2023/11/11 02:08:07;;;;;;;0.17;0.17;;;6.60;99.90;;;;;;4993226;28;20033;-75
2023/11/11 02:10:37;;;;;;;0.10;0.10;;;6.50;99.90;;;;;;4995925;28;20069;-73
2023/11/11 02:13:03;;;;;;;14.90;0.47;;;6.50;99.90;;;;;;4993222;28;20061;-74
2023/11/11 02:15:28;;;;;;;0.65;0.32;;;6.40;99.90;;;;;;4980047;28;20106;-72
2023/11/11 02:18:00;;;;;;;0.10;0.10;;;6.40;99.90;;;;;;4994227;28;20494;-74
2023/11/11 02:20:28;;;;;;;0.10;0.10;;;6.40;99.90;;;;;;4976268;28;20046;-72
2023/11/11 02:22:54;;;;;;;0.10;0.10;;;6.40;99.90;;;;;;4999492;28;20037;-73
2023/11/11 02:25:20;;;;;;;0.20;0.10;;;6.40;99.90;;;;;;4992400;28;20399;-74
2023/11/11 02:27:47;;;;;;;1.17;0.65;;;6.40;99.90;;;;;;4992277;28;20038;-74
2023/11/11 02:30:13;;;;;;;0.20;0.20;;;6.50;99.90;;;;;;4992360;28;20518;-73
2023/11/11 02:32:39;;;;;;;0.75;0.20;;;6.50;99.90;;;;;;4992121;28;20475;-74
2023/11/11 02:35:05;;;;;;;1.38;0.45;;;6.50;99.90;;;;;;4988942;28;20035;-72
2023/11/11 02:37:31;;;;;;;0.10;0.10;;;6.50;99.90;;;;;;4991928;28;20423;-74
2023/11/11 02:39:57;;;;;;;0.10;0.10;;;6.50;99.90;;;;;;4973144;28;20170;-74
2023/11/11 02:42:23;;;;;;;0.15;0.13;;;6.50;99.90;;;;;;4993285;28;20184;-73
2023/11/11 02:44:48;;;;;;;0.10;0.10;;;6.60;99.90;;;;;;4993089;28;20022;-73
2023/11/11 02:47:14;;;;;;;1.17;0.47;;;6.50;99.90;;;;;;4983788;28;20039;-74
2023/11/11 02:49:40;;;;;;;0.10;0.10;;;6.60;99.90;;;;;;4991873;28;20107;-73
2023/11/11 02:52:06;;;;;;;0.20;0.20;;;6.60;99.90;;;;;;4992187;28;20038;-71
2023/11/11 02:54:32;;;;;;;3.92;0.55;;;6.70;99.90;;;;;;4991867;28;20022;-73
2023/11/11 02:56:57;;;;;;;0.10;0.10;;;6.70;99.90;;;;;;4991300;28;20039;-73
2023/11/11 02:59:23;;;;;;;0.00;0.00;;;6.80;99.90;;;;;;4992956;28;20045;-72
2023/11/11 03:01:51;;;;;;;0.45;0.20;;;6.80;99.90;;;;;;4990827;28;20033;-72
2023/11/11 03:04:17;;;;;;;0.10;0.10;;;6.80;99.90;;;;;;4991961;28;20455;-72
2023/11/11 03:06:43;;;;;;;0.00;0.00;;;6.80;99.90;;;;;;4990755;28;20023;-72
2023/11/11 03:09:09;;;;;;;0.40;0.40;;;6.80;99.90;;;;;;4999058;28;20036;-72
2023/11/11 03:11:37;;;;;;;0.00;0.00;;;6.90;99.90;;;;;;4990081;28;20140;-73
2023/11/11 03:14:04;;;;;;;0.20;0.20;;;6.90;99.90;;;;;;4991675;28;20053;-72
2023/11/11 03:16:40;;;;;;;1.45;0.20;;;7.00;99.90;;;;;;4975268;28;20034;-73
2023/11/11 03:19:07;;;;;;;1.55;0.98;;;7.00;99.90;;;;;;4988826;28;20030;-72
2023/11/11 03:21:33;;;;;;;0.10;0.10;;;7.10;99.90;;;;;;4989074;28;20024;-72
2023/11/11 03:23:59;;;;;;;0.00;0.00;;;7.10;99.90;;;;;;4991484;28;20084;-72
2023/11/11 03:26:25;;;;;;;0.10;0.10;;;7.20;99.90;;;;;;4990502;28;20496;-73
2023/11/11 03:28:52;;;;;;;2.55;1.13;;;7.20;99.90;;;;;;4992432;28;20081;-72
2023/11/11 03:31:18;;;;;;;0.00;0.00;;;7.20;99.90;;;;;;4975776;28;20050;-73
2023/11/11 03:33:45;;;;;;;0.10;0.10;;;7.30;99.90;;;;;;4991351;28;20081;-73
2023/11/11 03:36:12;;;;;;;0.15;0.15;;;7.20;99.90;;;;;;4991533;28;20030;-74
2023/11/11 03:38:37;;;;;;;0.10;0.10;;;7.30;99.90;;;;;;4974440;28;20176;-73
2023/11/11 03:41:03;;;;;;;0.20;0.20;;;7.30;99.90;;;;;;4989968;28;20125;-73
2023/11/11 03:43:30;;;;;;;0.15;0.15;;;7.40;99.90;;;;;;4992355;28;20030;-73
2023/11/11 03:45:56;;;;;;;0.13;0.13;;;7.40;99.90;;;;;;4991416;28;20066;-73
2023/11/11 03:48:24;;;;;;;0.20;0.20;;;7.40;99.90;;;;;;4973760;28;20058;-73
2023/11/11 03:50:50;;;;;;;0.10;0.10;;;7.40;99.90;;;;;;4990275;28;20050;-73
2023/11/11 03:53:16;;;;;;;0.10;0.10;;;7.40;99.90;;;;;;4989204;28;20065;-73
2023/11/11 03:55:42;;;;;;;0.28;0.28;;;7.40;99.90;;;;;;4973782;28;20065;-73
2023/11/11 03:58:07;;;;;;;0.30;0.10;;;7.40;99.90;;;;;;4990303;28;20456;-73
2023/11/11 04:00:33;;;;;;;0.30;0.10;;;7.40;99.90;;;;;;4990438;28;20030;-72
2023/11/11 04:03:00;;;;;;;2.83;1.23;;;7.40;99.90;;;;;;4983671;28;20469;-73
2023/11/11 04:05:27;;;;;;;0.08;0.08;;;7.30;99.90;;;;;;4986971;28;20070;-73
2023/11/11 04:07:53;;;;;;;1.00;0.70;;;7.30;99.90;;;;;;4995368;28;20096;-73
2023/11/11 04:10:19;;;;;;;0.30;0.30;;;7.30;99.90;;;;;;4982598;28;20428;-73
2023/11/11 04:12:46;;;;;;;7.82;0.65;;;7.30;99.90;;;;;;4990727;28;20056;-73
2023/11/11 04:15:12;;;;;;;0.35;0.25;;;7.40;99.90;;;;;;4974737;28;20022;-71
2023/11/11 04:17:43;;;;;;;0.10;0.10;;;7.40;99.90;;;;;;4991869;28;20513;-71
2023/11/11 04:20:11;;;;;;;0.65;0.40;;;7.50;99.90;;;;;;4975808;28;20045;-71
2023/11/11 04:22:38;;;;;;;0.35;0.35;;;7.50;99.90;;;;;;4990315;28;20430;-70
2023/11/11 04:25:06;;;;;;;0.40;0.40;;;7.50;99.90;;;;;;4982313;28;20034;-71
2023/11/11 04:27:42;;;;;;;0.20;0.20;;;7.50;99.90;;;;;;4990623;28;20058;-71
2023/11/11 04:30:09;;;;;;;0.90;0.80;;;7.50;99.90;;;;;;4984618;28;20380;-71
2023/11/11 04:32:35;;;;;;;0.20;0.20;;;7.50;99.90;;;;;;4990724;28;20030;-71
2023/11/11 04:35:01;;;;;;;0.17;0.17;;;7.60;99.90;;;;;;5005755;28;20399;-73
2023/11/11 04:37:27;;;;;;;0.20;0.20;;;7.50;99.90;;;;;;4975370;28;20054;-72
2023/11/11 04:39:57;;;;;;;0.10;0.10;;;7.50;99.90;;;;;;4990766;28;20038;-70
2023/11/11 04:42:24;;;;;;;0.10;0.10;;;7.50;99.90;;;;;;4985473;28;20038;-70
2023/11/11 04:44:54;;;;;;;6.03;0.50;;;7.60;99.90;;;;;;4990460;28;20027;-71
2023/11/11 04:47:23;;;;;;;0.65;0.57;;;7.60;99.90;;;;;;4993883;28;20034;-72
2023/11/11 04:49:49;;;;;;;7.43;0.47;;;7.60;99.90;;;;;;4980597;28;20480;-71
2023/11/11 04:52:15;;;;;;;1.65;0.47;;;7.60;99.90;;;;;;4975841;28;20038;-72
2023/11/11 04:54:47;;;;;;;0.43;0.43;;;7.50;99.90;;;;;;4990224;28;20034;-72
2023/11/11 04:57:13;;;;;;;1.05;0.47;;;7.50;99.90;;;;;;4990936;28;20042;-73
2023/11/11 04:59:39;;;;;;;0.10;0.10;;;7.50;99.90;;;;;;4998498;28;20023;-73
2023/11/11 05:02:05;;;;;;;0.45;0.45;;;7.50;99.90;;;;;;4990657;28;20034;-73
2023/11/11 05:04:31;;;;;;;0.08;0.08;;;7.50;99.90;;;;;;4986383;28;20114;-73
2023/11/11 05:06:58;;;;;;;0.68;0.32;;;7.40;99.90;;;;;;4990040;28;20034;-73
2023/11/11 05:09:23;;;;;;;0.15;0.15;;;7.40;99.90;;;;;;4974738;28;20045;-73
2023/11/11 05:11:49;;;;;;;0.22;0.22;;;7.50;99.90;;;;;;4997912;28;20035;-73
2023/11/11 05:14:18;;;;;;;0.55;0.55;;;7.40;99.90;;;;;;4998695;28;20026;-73
2023/11/11 05:16:50;;;;;;;0.43;0.30;;;7.40;99.90;;;;;;4988843;28;20034;-73
2023/11/11 05:19:23;;;;;;;0.30;0.30;;;7.40;99.90;;;;;;4991080;28;20511;-73
2023/11/11 05:21:49;;;;;;;0.15;0.10;;;7.40;99.90;;;;;;4992745;28;20464;-73
2023/11/11 05:24:15;;;;;;;0.10;0.10;;;7.30;99.90;;;;;;4979649;28;20026;-73
2023/11/11 05:26:42;;;;;;;0.25;0.25;;;7.50;99.90;;;;;;5007477;28;20036;-73
2023/11/11 05:29:08;;;;;;;0.20;0.20;;;7.40;99.90;;;;;;4990435;28;20034;-72
2023/11/11 05:31:34;;;;;;;0.38;0.38;;;7.40;99.90;;;;;;4986070;28;20054;-73
2023/11/11 05:34:01;;;;;;;0.20;0.20;;;7.30;99.90;;;;;;4987871;28;20097;-71
2023/11/11 05:36:27;;;;;;;1.10;0.38;;;7.30;99.90;;;;;;5005989;28;20037;-72
2023/11/11 05:38:54;;;;;;;2.05;0.60;;;7.30;99.90;;;;;;4994334;28;20044;-73
2023/11/11 05:41:21;;;;;;;1.95;0.40;;;7.30;99.90;;;;;;4993920;28;20056;-71
2023/11/11 05:43:47;;;;;;;0.20;0.20;;;7.30;99.90;;;;;;4977173;28;20034;-72
2023/11/11 05:46:13;;;;;;;1.23;0.50;;;7.30;99.90;;;;;;4976831;28;20548;-72
2023/11/11 05:48:44;;;;;;;0.32;0.30;;;7.20;99.90;;;;;;4994373;28;20113;-72
2023/11/11 05:51:10;;;;;;;0.00;0.00;;;7.20;99.90;;;;;;4984708;28;20058;-72
2023/11/11 05:53:36;;;;;;;0.30;0.30;;;7.30;99.90;;;;;;4997467;28;20041;-73
2023/11/11 05:56:04;;;;;;;0.22;0.22;;;7.30;99.90;;;;;;5008370;28;20028;-70
2023/11/11 05:58:30;;;;;;;1.17;1.10;;;7.30;99.90;;;;;;5007443;28;20018;-72
2023/11/11 06:00:58;;;;;;;0.43;0.43;;;7.40;99.90;;;;;;4987397;28;20092;-75
2023/11/11 06:03:24;;;;;;;0.20;0.20;;;7.40;99.90;;;;;;4994680;28;20041;-70
2023/11/11 06:05:50;;;;;;;0.25;0.25;;;7.40;99.90;;;;;;5012346;28;20030;-73
2023/11/11 06:08:16;;;;;;;0.30;0.30;;;7.50;99.90;;;;;;4992109;28;20041;-72
2023/11/11 06:10:43;;;;;;;0.25;0.25;;;7.60;99.90;;;;;;4992589;28;20018;-71
2023/11/11 06:13:09;;;;;;;0.35;0.22;;;7.60;99.90;;;;;;5009097;28;20080;-74
2023/11/11 06:15:36;;;;;;;1.75;0.68;;;7.70;99.90;;;;;;4987636;28;20113;-72
2023/11/11 06:18:02;;;;;;;0.10;0.10;;;7.70;99.90;;;;;;4985866;28;20057;-73
2023/11/11 06:20:30;;;;;;;0.30;0.30;;;7.70;99.90;;;;;;4975346;28;20041;-73
2023/11/11 06:22:57;;;;;;;0.10;0.10;;;7.70;99.90;;;;;;4972572;28;20038;-73
2023/11/11 06:25:24;;;;;;;4.30;0.63;;;7.80;99.90;;;;;;4965084;28;20117;-70
2023/11/11 06:27:53;;;;;;;0.57;0.30;;;7.80;99.90;;;;;;4956230;28;20022;-74
2023/11/11 06:30:20;;;;;;;0.10;0.10;;;7.70;99.90;;;;;;4959019;28;20027;-73
2023/11/11 06:32:50;;;;;;;0.38;0.38;;;7.80;99.90;;;;;;4976098;28;20145;-75
2023/11/11 06:35:18;;;;;;;1.00;0.55;;;7.80;99.90;;;;;;4982075;28;20523;-71
2023/11/11 06:37:44;;;;;;;0.20;0.20;;;7.80;99.90;;;;;;4986279;28;20031;-70
2023/11/11 06:40:10;;;;;;;0.52;0.52;;;7.80;99.90;;;;;;4975016;28;20026;-70
2023/11/11 06:42:37;;;;;;;0.30;0.30;;;7.80;99.90;;;;;;4973498;28;20484;-70
2023/11/11 06:45:05;;;;;;;0.55;0.40;;;7.80;99.90;;;;;;4972813;28;20562;-71
2023/11/11 06:47:32;;;;;;;0.10;0.10;;;7.80;99.90;;;;;;4967664;28;20038;-71
2023/11/11 06:49:58;;;;;;;0.20;0.20;;;7.80;99.90;;;;;;4986081;28;20030;-72
2023/11/11 06:52:24;;;;;;;0.85;0.65;;;7.80;99.90;;;;;;4971186;28;20110;-70
2023/11/11 06:54:49;;;;;;;1.52;0.95;;;7.80;99.90;;;;;;4972383;28;20101;-73
2023/11/11 06:57:16;;;;;;;0.20;0.20;;;7.80;99.90;;;;;;4984311;28;20038;-70
2023/11/11 06:59:42;;;;;;;0.10;0.10;;;7.80;99.90;;;;;;4992380;28;20424;-69
2023/11/11 07:02:12;;;;;;;0.30;0.28;;;7.80;99.90;;;;;;4966633;28;20065;-70
2023/11/11 07:04:44;;;;;;;0.25;0.25;;;7.80;99.90;;;;;;4971122;28;20034;-69
2023/11/11 07:07:11;;;;;;;0.20;0.20;;;7.90;99.90;;;;;;4987409;28;20038;-69
2023/11/11 07:09:39;;;;;;;0.25;0.25;;;7.90;99.90;;;;;;4991896;28;20030;-72
2023/11/11 07:12:05;;;;;;;5.88;0.55;;;7.90;99.90;;;;;;4988834;28;20566;-68
2023/11/11 07:14:31;;;;;;;0.82;0.40;;;7.90;99.90;;;;;;4977527;28;20060;-73
2023/11/11 07:17:00;;;;;;;0.20;0.20;;;7.90;99.90;;;;;;4975536;28;20062;-71
2023/11/11 07:19:26;;;;;;;0.20;0.20;;;7.90;99.90;;;;;;4984013;28;20043;-70
2023/11/11 07:21:52;;;;;;;0.30;0.30;;;7.80;99.90;;;;;;4973423;28;20030;-72
2023/11/11 07:24:18;;;;;;;0.17;0.17;;;7.80;99.90;;;;;;4989801;28;20133;-70
2023/11/11 07:26:44;;;;;;;1.55;0.60;;;7.80;99.90;;;;;;4991954;28;20085;-72
2023/11/11 07:29:10;;;;;;;0.30;0.30;;;7.90;99.90;;;;;;4988520;28;20034;-71
2023/11/11 07:31:36;;;;;;;0.10;0.10;;;7.90;99.90;;;;;;4988123;28;20033;-72
2023/11/11 07:34:03;;;;;;;0.30;0.20;;;7.90;99.90;;;;;;4990109;28;20029;-71
2023/11/11 07:36:29;;;;;;;0.30;0.30;;;7.90;99.90;;;;;;4990416;28;20431;-71
2023/11/11 07:38:55;;;;;;;0.30;0.30;;;7.90;99.90;;;;;;4987306;28;20030;-72
2023/11/11 07:41:20;;;;;;;0.45;0.40;;;7.90;99.90;;;;;;4990836;28;20593;-73
2023/11/11 07:43:48;;;;;;;0.52;0.52;;;7.90;99.90;;;;;;4986567;28;20114;-72
2023/11/11 07:46:19;;;;;;;0.60;0.55;;;7.90;99.90;;;;;;4991960;28;20026;-72
2023/11/11 07:48:45;;;;;;;1.30;1.13;;;7.90;99.90;;;;;;4988634;28;20050;-72
2023/11/11 07:51:10;;;;;;;0.75;0.52;;;7.90;99.90;;;;;;4990462;28;20034;-71
2023/11/11 07:53:36;;;;;;;0.38;0.30;;;7.90;99.90;;;;;;4989076;28;20041;-71
2023/11/11 07:56:04;;;;;;;2.97;0.80;;;8.00;99.90;;;;;;4991617;28;20053;-72
2023/11/11 07:58:31;;;;;;;0.30;0.30;;;8.00;99.90;;;;;;4999873;28;20026;-71
2023/11/11 08:00:59;;;;;;;0.25;0.20;;;8.00;99.90;;;;;;4977976;28;20038;-70
2023/11/11 08:03:26;;;;;;;1.15;0.22;;;8.10;99.90;;;;;;4981016;28;20492;-72
2023/11/11 08:05:52;;;;;;;0.57;0.55;;;8.10;99.90;;;;;;4982421;28;20412;-72
2023/11/11 08:08:17;;;;;;;1.15;0.68;;;8.10;99.90;;;;;;4994493;28;20034;-72
2023/11/11 08:10:47;;;;;;;1.33;0.43;;;8.10;99.90;;;;;;4978888;28;20038;-73
2023/11/11 08:13:13;;;;;;;2.17;1.25;;;8.00;99.90;;;;;;4991519;28;20128;-72
2023/11/11 08:15:39;;;;;;;1.30;0.55;;;8.00;99.90;;;;;;4986494;28;20059;-71
2023/11/11 08:18:05;;;;;;;0.40;0.40;;;8.00;99.90;;;;;;4987403;28;20081;-72
2023/11/11 08:20:31;;;;;;;0.80;0.75;;;8.00;99.90;;;;;;4983745;28;20083;-72
2023/11/11 08:22:56;;;;;;;0.68;0.50;;;8.10;99.90;;;;;;4986133;28;20038;-72
2023/11/11 08:25:22;;;;;;;0.20;0.20;;;8.20;99.90;;;;;;4988176;28;20031;-72
2023/11/11 08:27:52;;;;;;;0.63;0.40;;;8.20;99.90;;;;;;4986718;28;20049;-71
2023/11/11 08:30:17;;;;;;;0.55;0.55;;;8.30;99.90;;;;;;4988444;28;20074;-72
2023/11/11 08:32:43;;;;;;;0.43;0.43;;;8.40;99.90;;;;;;4987151;28;20054;-73
2023/11/11 08:35:15;;;;;;;0.43;0.32;;;8.60;99.90;;;;;;4989520;28;20026;-72
2023/11/11 08:37:43;;;;;;;0.65;0.50;;;8.70;99.90;;;;;;4995669;28;20505;-72
2023/11/11 08:40:10;;;;;;;0.90;0.77;;;8.70;99.90;;;;;;4988426;28;20038;-71
2023/11/11 08:42:36;;;;;;;0.43;0.43;;;8.70;99.90;;;;;;4989942;28;20031;-72
2023/11/11 08:45:02;;;;;;;0.20;0.20;;;8.90;99.90;;;;;;4986649;28;20390;-71
2023/11/11 08:47:28;;;;;;;0.80;0.28;;;9.00;99.90;;;;;;4989165;28;20022;-72
2023/11/11 08:49:55;;;;;;;0.95;0.77;;;9.10;99.90;;;;;;4989080;28;20032;-71
2023/11/11 08:52:22;;;;;;;0.80;0.57;;;9.20;99.90;;;;;;4989431;28;20033;-72
2023/11/11 08:54:50;;;;;;;1.25;0.68;;;9.00;99.90;;;;;;4990942;28;20034;-71
2023/11/11 08:57:17;;;;;;;0.13;0.13;;;9.00;99.90;;;;;;4988877;28;20041;-71
2023/11/11 08:59:42;;;;;;;4.13;0.52;;;9.10;99.90;;;;;;4984754;28;20041;-71
2023/11/11 09:02:09;;;;;;;0.20;0.20;;;9.00;99.90;;;;;;4989671;28;20045;-71
2023/11/11 09:04:36;;;;;;;0.52;0.40;;;9.10;99.90;;;;;;4982057;28;20498;-71
2023/11/11 09:07:02;;;;;;;1.35;0.75;;;9.20;99.90;;;;;;4986225;28;20041;-72
2023/11/11 09:09:29;;;;;;;2.67;1.15;;;9.20;99.90;;;;;;4983152;28;20037;-72
2023/11/11 09:11:56;;;;;;;4.88;0.73;;;9.20;99.90;;;;;;4990005;28;20046;-73
2023/11/11 09:14:22;;;;;;;0.98;0.63;;;9.10;99.90;;;;;;4984060;28;20117;-72
2023/11/11 09:16:48;;;;;;;0.55;0.55;;;8.90;99.90;;;;;;4993279;28;20440;-73
2023/11/11 09:19:14;;;;;;;3.50;0.65;;;8.80;99.90;;;;;;4984006;28;20037;-73
2023/11/11 09:21:40;;;;;;;9.43;0.95;;;8.80;99.90;;;;;;4994492;28;20113;-72
2023/11/11 09:24:07;;;;;;;1.00;0.70;;;8.90;99.90;;;;;;5010211;28;20042;-71
2023/11/11 09:26:33;;;;;;;0.70;0.70;;;9.00;99.90;;;;;;4996225;28;20535;-71
2023/11/11 09:28:59;;;;;;;1.17;0.70;;;9.10;99.90;;;;;;4987474;28;20364;-73
2023/11/11 09:31:28;;;;;;;1.27;0.75;;;9.20;99.90;;;;;;5013578;28;20117;-72
2023/11/11 09:34:00;;;;;;;0.75;0.68;;;9.30;99.90;;;;;;4988079;28;20041;-71
2023/11/11 09:36:30;;;;;;;1.60;1.17;;;9.20;99.90;;;;;;5013802;28;20040;-72
2023/11/11 09:38:56;;;;;;;3.15;1.17;;;9.20;99.90;;;;;;5004261;28;20041;-71
2023/11/11 09:41:22;;;;;;;0.38;0.38;;;9.20;99.90;;;;;;4995969;28;20038;-71
2023/11/11 09:43:49;;;;;;;1.85;0.88;;;9.10;99.90;;;;;;4999634;28;20041;-71
2023/11/11 09:46:16;;;;;;;1.73;0.93;;;9.00;99.90;;;;;;4993794;28;20047;-72
2023/11/11 09:48:43;;;;;;;2.50;0.70;;;8.90;99.90;;;;;;4991747;28;20019;-72
2023/11/11 09:51:10;;;;;;;1.58;0.95;;;9.20;99.90;;;;;;4992607;28;20022;-72
2023/11/11 09:53:43;;;;;;;1.17;0.93;;;10.70;99.90;;;;;;5004614;28;20384;-72
2023/11/11 09:56:10;;;;;;;0.57;0.50;;;12.10;99.90;;;;;;4995926;28;20419;-73
2023/11/11 09:58:37;;;;;;;13.82;0.70;;;12.90;99.90;;;;;;4986565;28;20109;-72
2023/11/11 10:01:03;;;;;;;4.22;0.88;;;13.40;98.50;;;;;;4995297;28;20026;-72
2023/11/11 10:03:30;;;;;;;2.53;1.25;;;13.40;98.50;;;;;;4997591;28;20024;-72
2023/11/11 10:05:56;;;;;;;362.85;322.95;;;15.20;94.50;;;;;;4996162;28;20176;-73
2023/11/11 10:08:24;;;;;;;2.25;1.20;;;15.00;93.80;;;;;;4994732;28;20037;-73
2023/11/11 10:10:52;;;;;;;2.42;1.10;;;15.20;90.70;;;;;;4975736;28;20045;-73
2023/11/11 10:13:20;;;;;;;4.15;1.75;;;14.30;94.60;;;;;;5010653;28;20112;-73
2023/11/11 10:15:46;;;;;;;3.42;1.08;;;14.10;93.50;;;;;;5008536;28;20045;-73
2023/11/11 10:18:14;;;;;;;8.27;1.42;;;12.30;98.10;;;;;;5012108;28;20113;-73
2023/11/11 10:20:44;;;;;;;1.45;0.85;;;12.30;99.90;;;;;;5011736;28;20479;-72
2023/11/11 10:23:16;;;;;;;1.23;0.90;;;12.70;99.30;;;;;;4991565;28;20065;-72
2023/11/11 10:25:42;;;;;;;1.65;1.08;;;13.60;95.80;;;;;;4991838;28;20034;-72
2023/11/11 10:28:15;;;;;;;2.88;0.85;;;14.30;93.80;;;;;;4999367;28;20479;-73
2023/11/11 10:30:42;;;;;;;3.05;1.83;;;13.60;95.70;;;;;;4989466;28;20034;-72
2023/11/11 10:33:11;;;;;;;3.95;1.10;;;13.20;97.30;;;;;;4990888;28;20069;-71
2023/11/11 10:35:37;;;;;;;0.52;0.30;;;13.30;96.70;;;;;;4996949;28;20060;-72
2023/11/11 10:38:04;;;;;;;11.70;10.93;;;14.20;93.10;;;;;;4991817;28;20058;-71
2023/11/11 10:40:29;;;;;;;0.32;0.32;;;15.10;90.70;;;;;;4990371;28;20026;-72
2023/11/11 10:42:55;;;;;;;1.63;0.32;;;12.50;95.00;;;;;;4995444;28;20096;-72
2023/11/11 10:45:21;;;;;;;0.55;0.50;;;12.10;99.50;;;;;;4999393;28;20038;-73
2023/11/11 10:47:47;;;;;;;0.45;0.43;;;12.30;99.10;;;;;;4990855;28;20499;-72
2023/11/11 10:50:14;;;;;;;1.70;0.50;;;13.00;98.30;;;;;;4990182;28;20403;-47
2023/11/11 10:52:41;;;;;;;0.10;0.10;;;14.50;94.60;;;;;;4991371;28;20023;-48
2023/11/11 10:55:09;;;;;;;4.05;0.30;;;12.40;97.30;;;;;;4991147;28;20504;-46
2023/11/11 10:57:35;;;;;;;0.52;0.52;;;11.20;99.90;;;;;;4986899;28;20041;-46
2023/11/11 11:00:04;;;;;;;0.52;0.52;;;10.60;99.90;;;;;;4976484;28;20052;-45
2023/11/11 11:02:30;;;;;;;1.08;0.63;;;10.00;99.90;;;;;;4974799;28;20396;-44
2023/11/11 11:05:08;;;;;;;0.60;0.50;;;9.90;99.90;;;;;;4989060;28;20496;-48
2023/11/11 11:07:42;;;;;;;6.22;0.73;;;9.90;99.90;;;;;;5002804;28;20030;-46
2023/11/11 11:10:20;;;;;;;0.20;0.20;;;9.70;99.90;;;;;;4995764;28;20030;-45
2023/11/11 11:12:56;;;;;;;0.45;0.40;;;9.60;99.90;;;;;;4961231;28;20039;-72
2023/11/11 11:15:21;;;;;;;0.22;0.22;;;9.40;99.90;;;;;;4997104;28;20183;-72
2023/11/11 11:17:53;;;;;;;0.93;0.70;;;9.40;99.90;;;;;;4978501;28;20105;-72
2023/11/11 11:20:25;;;;;;;0.28;0.28;;;9.40;99.90;;;;;;5000517;28;20038;-72
2023/11/11 11:22:59;;;;;;;1.30;0.40;;;9.30;99.90;;;;;;4982673;28;20164;-72
2023/11/11 11:25:41;;;;;;;0.30;0.30;;;9.50;99.90;;;;;;4985597;28;20104;-72
2023/11/11 11:28:09;;;;;;;2.25;1.25;;;9.90;99.90;;;;;;4980637;28;20050;-72
2023/11/11 11:30:58;;;;;;;0.40;0.35;;;10.90;99.90;;;;;;4988694;28;20072;-72
2023/11/11 11:33:26;;;;;;;1.02;0.63;;;11.40;99.90;;;;;;4976475;28;20022;-72
2023/11/11 11:36:06;;;;;;;0.68;0.57;;;10.90;99.90;;;;;;4976282;28;20089;-73
2023/11/11 11:38:38;;;;;;;1.45;0.63;;;11.30;99.90;;;;;;5009019;28;20027;-72
2023/11/11 11:41:11;;;;;;;0.82;0.52;;;11.40;99.90;;;;;;4971209;28;20041;-73
2023/11/11 11:43:39;;;;;;;0.20;0.20;;;11.60;99.90;;;;;;4978927;28;20037;-73
2023/11/11 11:46:05;;;;;;;0.95;0.43;;;12.90;98.20;;;;;;4982895;28;20041;-74
2023/11/11 11:48:37;;;;;;;0.13;0.13;;;14.60;92.30;;;;;;4981403;28;20030;-72
2023/11/11 11:51:14;;;;;;;1.02;0.30;;;13.30;92.70;;;;;;4974253;28;20106;-73
2023/11/11 11:53:45;;;;;;;0.32;0.25;;;14.20;92.80;;;;;;4971983;28;20070;-72
2023/11/11 11:56:30;;;;;;;1.03;0.70;;;14.90;89.10;;;;;;4975835;28;20034;-73
2023/11/11 11:58:58;;;;;;;0.63;0.30;;;14.20;91.40;;;;;;4977029;28;20168;-74
2023/11/11 12:01:28;;;;;;;0.32;0.22;;;15.10;87.50;;;;;;4995624;28;20034;-74
2023/11/11 12:03:55;;;;;;;0.17;0.17;;;16.20;84.90;;;;;;4983421;28;20043;-72
2023/11/11 12:06:23;;;;;;;0.65;0.52;;;15.10;85.60;;;;;;4970174;28;20130;-73
2023/11/11 12:09:00;;;;;;;0.10;0.10;;;14.50;84.40;;;;;;4975530;28;20209;-73
2023/11/11 12:11:33;;;;;;;0.52;0.45;;;14.60;85.30;;;;;;4985688;28;20245;-73
2023/11/11 12:14:09;;;;;;;14.18;0.68;;;15.10;85.50;;;;;;4970376;28;20023;-72
2023/11/11 12:16:52;;;;;;;1.42;0.50;;;14.90;82.70;;;;;;4979572;28;20042;-71
2023/11/11 12:19:27;;;;;;;4.68;0.25;;;13.30;87.00;;;;;;4990257;28;20026;-72
2023/11/11 12:21:53;;;;;;;0.32;0.13;;;12.40;91.80;;;;;;4982752;28;20047;-75
2023/11/11 12:24:23;;;;;;;3.20;1.17;;;12.20;93.20;;;;;;4988996;28;20034;-72
2023/11/11 12:26:48;;;;;;;1.08;0.38;;;11.90;93.40;;;;;;4987538;28;20045;-71
2023/11/11 12:29:15;;;;;;;0.20;0.20;;;11.40;95.80;;;;;;4990445;28;20022;-71
2023/11/11 12:31:49;;;;;;;0.15;0.15;;;11.40;94.40;;;;;;4964429;28;20031;-72
2023/11/11 12:34:18;;;;;;;0.13;0.13;;;11.30;94.80;;;;;;4973175;28;20038;-73
2023/11/11 12:36:46;;;;;;;0.88;0.10;;;11.20;94.50;;;;;;4980748;28;20039;-75
2023/11/11 12:39:14;;;;;;;1.63;0.85;;;11.10;95.60;;;;;;4977498;28;20043;-77
2023/11/11 12:41:51;;;;;;;0.20;0.20;;;10.80;95.30;;;;;;4975916;28;20030;-78
2023/11/11 12:44:23;;;;;;;0.30;0.30;;;10.60;96.40;;;;;;4968870;28;20080;-72
2023/11/11 12:46:50;;;;;;;4.30;0.47;;;10.60;96.60;;;;;;4981791;28;20531;-75
2023/11/11 12:49:18;;;;;;;0.20;0.20;;;10.50;97.50;;;;;;4986278;28;20030;-75
2023/11/11 12:51:45;;;;;;;1.33;0.30;;;10.50;98.30;;;;;;4986222;28;20045;-78
2023/11/11 12:54:13;;;;;;;0.40;0.32;;;10.40;97.50;;;;;;4991428;28;20554;-74
2023/11/11 12:56:52;;;;;;;3.55;0.55;;;10.30;98.20;;;;;;4990099;28;20027;-74